Aérodrome :
LOGIN :

S'inscrire | Disclaimer

   EN    FR    IT 

 










Légende :    VFR   VFR Marginal   IFR   IFR Intensif   IFR Très Intensif
Visi : 
Plafond : 
>= 8 km
>= 3000ft
5 à 8 km
1000 à 3000 ft
1500m à 5 km
500 à 1000 ft
800 à 1500m
200 à 500 ft
< 800m
< 200 ft
Symboles :   Orages  Brouillard  Fortes neiges  Fortes précipitations  Vent > 20 kt
SIGMETs :   Divers  Orages  Givrage  Turbulence  Onde Orograph.  Cendres Volcan.







- Altitude de l'aérodrome : 84 ft
- Voir les cartes d'approche


LFBC - Cazaux

DERNIER METAR :
  • 222130Z AUTO 35008KT CAVOK 16/15 Q1016 BECMG 3000 BR

METARs EXPIRÉS :
  • 222100Z AUTO 34006KT CAVOK 16/15 Q1016 BECMG 3000 BR
  • 222030Z AUTO 00000KT CAVOK 17/15 Q1016 BECMG 3000 BR
  • 222000Z AUTO 32004KT CAVOK 17/14 Q1016 BECMG 24010KT 2000 BR OVC003
  • 221930Z AUTO 32004KT CAVOK 18/15 Q1015 BECMG 24010KT 2000 BR OVC003
  • 221900Z AUTO 30005KT 270V330 CAVOK 18/15 Q1016 BECMG 2000 BR OVC003

TAF TAF LFBC
Valide du 22 à 21h jusqu'au 23 à 21h UTC


222000Z 2221/2321 28005KT CAVOK
PROB30
TEMPO 2221/2222 3000 BR SCT005
BECMG 2222/2224 3000 BR
PROB40
TEMPO 2300/2307 0500 FG VV///
BECMG 2307/2308 8000 NSW
Pas de NOTAMs connus pour ce terrain.



MET'MAP, la Météo Aéronautique d'un coup d'oeil ! - Copyright ORBIFLY Décembre 2007 - Disclaimer

ORBIFLY MET'MAP TEAM :

Programmation & Développement : Alexandra Zaïnal
Conception & Développement : Baudouin d'Aumeries
Co-Programmation & Développement : Marc-Olivier Méhu
Soutien technique & logistique : Manuel Goepfert

Contact : metmap@orbifly.com




SOURCES & CREDITS :

   NOAA